sensor_id;sensor_type;location;lat;lon;timestamp;pressure;altitude;pressure_sealevel;temperature;humidity
10518;BME280;5307;42.548;22.968;2022-08-21T00:01:35;93326.06;;;18.54;100.00
10518;BME280;5307;42.548;22.968;2022-08-21T00:04:04;93333.41;;;18.46;100.00
10518;BME280;5307;42.548;22.968;2022-08-21T00:06:32;93335.16;;;18.44;100.00
10518;BME280;5307;42.548;22.968;2022-08-21T00:08:59;93339.19;;;18.43;100.00
10518;BME280;5307;42.548;22.968;2022-08-21T00:11:26;93328.13;;;18.48;100.00
10518;BME280;5307;42.548;22.968;2022-08-21T00:13:53;93328.75;;;18.24;100.00
10518;BME280;5307;42.548;22.968;2022-08-21T00:16:20;93336.75;;;18.33;100.00
10518;BME280;5307;42.548;22.968;2022-08-21T00:18:49;93336.75;;;18.33;100.00
10518;BME280;5307;42.548;22.968;2022-08-21T00:21:16;93329.13;;;18.51;100.00
10518;BME280;5307;42.548;22.968;2022-08-21T00:23:43;93333.16;;;18.50;100.00
10518;BME280;5307;42.548;22.968;2022-08-21T00:26:10;93335.25;;;18.32;100.00
10518;BME280;5307;42.548;22.968;2022-08-21T00:28:37;93328.41;;;18.39;100.00
10518;BME280;5307;42.548;22.968;2022-08-21T00:31:04;93321.44;;;18.32;100.00
10518;BME280;5307;42.548;22.968;2022-08-21T00:33:31;93318.66;;;18.32;100.00
10518;BME280;5307;42.548;22.968;2022-08-21T00:36:00;93312.41;;;18.26;100.00
10518;BME280;5307;42.548;22.968;2022-08-21T00:38:27;93318.72;;;18.16;100.00
10518;BME280;5307;42.548;22.968;2022-08-21T00:40:56;93323.69;;;18.28;100.00
10518;BME280;5307;42.548;22.968;2022-08-21T00:43:27;93325.41;;;18.37;100.00
10518;BME280;5307;42.548;22.968;2022-08-21T00:45:55;93319.13;;;18.36;100.00
10518;BME280;5307;42.548;22.968;2022-08-21T00:48:23;93316.66;;;18.27;100.00
10518;BME280;5307;42.548;22.968;2022-08-21T00:50:55;93325.50;;;18.15;100.00
10518;BME280;5307;42.548;22.968;2022-08-21T00:53:25;93317.72;;;18.13;100.00
10518;BME280;5307;42.548;22.968;2022-08-21T00:55:54;93317.22;;;18.15;100.00
10518;BME280;5307;42.548;22.968;2022-08-21T00:58:22;93316.41;;;18.31;100.00
10518;BME280;5307;42.548;22.968;2022-08-21T01:00:50;93309.16;;;18.22;100.00
10518;BME280;5307;42.548;22.968;2022-08-21T01:03:19;93311.72;;;18.09;100.00
10518;BME280;5307;42.548;22.968;2022-08-21T01:05:46;93308.19;;;18.14;100.00
10518;BME280;5307;42.548;22.968;2022-08-21T01:08:14;93298.88;;;18.17;100.00
10518;BME280;5307;42.548;22.968;2022-08-21T01:10:44;93300.88;;;18.22;100.00
10518;BME280;5307;42.548;22.968;2022-08-21T01:13:14;93292.31;;;18.26;100.00
10518;BME280;5307;42.548;22.968;2022-08-21T01:15:45;93291.78;;;18.27;100.00
10518;BME280;5307;42.548;22.968;2022-08-21T01:18:13;93301.22;;;18.02;100.00
10518;BME280;5307;42.548;22.968;2022-08-21T01:20:43;93302.72;;;18.03;100.00
10518;BME280;5307;42.548;22.968;2022-08-21T01:23:12;93292.47;;;17.87;100.00
10518;BME280;5307;42.548;22.968;2022-08-21T01:25:39;93294.13;;;18.12;100.00
10518;BME280;5307;42.548;22.968;2022-08-21T01:28:11;93294.13;;;18.12;100.00
10518;BME280;5307;42.548;22.968;2022-08-21T01:30:42;93293.38;;;18.12;100.00
10518;BME280;5307;42.548;22.968;2022-08-21T01:33:09;93281.28;;;18.15;100.00
10518;BME280;5307;42.548;22.968;2022-08-21T01:35:36;93281.34;;;18.09;100.00
10518;BME280;5307;42.548;22.968;2022-08-21T01:38:06;93282.03;;;18.15;100.00
10518;BME280;5307;42.548;22.968;2022-08-21T01:40:34;93280.94;;;18.35;100.00
10518;BME280;5307;42.548;22.968;2022-08-21T01:43:01;93292.09;;;18.18;100.00
10518;BME280;5307;42.548;22.968;2022-08-21T01:45:29;93293.66;;;18.08;100.00
10518;BME280;5307;42.548;22.968;2022-08-21T01:47:56;93287.38;;;18.07;100.00
10518;BME280;5307;42.548;22.968;2022-08-21T01:50:24;93273.59;;;18.02;100.00
10518;BME280;5307;42.548;22.968;2022-08-21T01:52:51;93287.88;;;18.06;100.00
10518;BME280;5307;42.548;22.968;2022-08-21T01:55:19;93270.25;;;18.15;100.00
10518;BME280;5307;42.548;22.968;2022-08-21T01:57:48;93291.63;;;18.08;100.00
10518;BME280;5307;42.548;22.968;2022-08-21T02:00:18;93296.94;;;18.01;100.00
10518;BME280;5307;42.548;22.968;2022-08-21T02:02:45;93301.47;;;18.04;100.00
10518;BME280;5307;42.548;22.968;2022-08-21T02:05:12;93300.44;;;18.07;100.00
10518;BME280;5307;42.548;22.968;2022-08-21T02:07:41;93295.94;;;17.98;100.00
10518;BME280;5307;42.548;22.968;2022-08-21T02:10:10;93290.19;;;18.02;100.00
10518;BME280;5307;42.548;22.968;2022-08-21T02:12:37;93293.59;;;18.19;100.00
10518;BME280;5307;42.548;22.968;2022-08-21T02:15:07;93290.38;;;18.09;100.00
10518;BME280;5307;42.548;22.968;2022-08-21T02:17:39;93283.81;;;18.18;100.00
10518;BME280;5307;42.548;22.968;2022-08-21T02:20:09;93291.28;;;18.29;100.00
10518;BME280;5307;42.548;22.968;2022-08-21T02:22:36;93296.69;;;17.99;100.00
10518;BME280;5307;42.548;22.968;2022-08-21T02:25:03;93299.56;;;18.34;100.00
10518;BME280;5307;42.548;22.968;2022-08-21T02:27:37;93296.31;;;18.25;100.00
10518;BME280;5307;42.548;22.968;2022-08-21T02:30:08;93297.13;;;18.14;100.00
10518;BME280;5307;42.548;22.968;2022-08-21T02:32:36;93295.81;;;18.26;100.00
10518;BME280;5307;42.548;22.968;2022-08-21T02:35:04;93286.81;;;18.20;100.00
10518;BME280;5307;42.548;22.968;2022-08-21T02:37:31;93292.34;;;18.15;100.00
10518;BME280;5307;42.548;22.968;2022-08-21T02:39:59;93286.91;;;17.98;100.00
10518;BME280;5307;42.548;22.968;2022-08-21T02:42:26;93291.22;;;17.88;100.00
10518;BME280;5307;42.548;22.968;2022-08-21T02:44:53;93293.28;;;17.70;100.00
10518;BME280;5307;42.548;22.968;2022-08-21T02:47:21;93291.28;;;17.65;100.00
10518;BME280;5307;42.548;22.968;2022-08-21T02:49:48;93293.19;;;18.04;100.00
10518;BME280;5307;42.548;22.968;2022-08-21T02:52:15;93292.16;;;18.07;100.00
10518;BME280;5307;42.548;22.968;2022-08-21T02:54:42;93290.66;;;18.06;100.00
10518;BME280;5307;42.548;22.968;2022-08-21T02:57:09;93298.72;;;17.98;100.00
10518;BME280;5307;42.548;22.968;2022-08-21T02:59:35;93295.75;;;17.91;100.00
10518;BME280;5307;42.548;22.968;2022-08-21T03:02:02;93299.69;;;18.06;100.00
10518;BME280;5307;42.548;22.968;2022-08-21T03:04:31;93294.97;;;17.96;100.00
10518;BME280;5307;42.548;22.968;2022-08-21T03:06:58;93298.63;;;18.15;100.00
10518;BME280;5307;42.548;22.968;2022-08-21T03:09:25;93300.72;;;17.98;100.00
10518;BME280;5307;42.548;22.968;2022-08-21T03:11:52;93300.72;;;17.98;100.00
10518;BME280;5307;42.548;22.968;2022-08-21T03:14:18;93299.00;;;17.84;100.00
10518;BME280;5307;42.548;22.968;2022-08-21T03:16:45;93297.44;;;18.05;100.00
10518;BME280;5307;42.548;22.968;2022-08-21T03:19:12;93287.47;;;17.85;100.00
10518;BME280;5307;42.548;22.968;2022-08-21T03:21:41;93288.50;;;17.76;100.00
10518;BME280;5307;42.548;22.968;2022-08-21T03:24:07;93287.25;;;17.72;100.00
10518;BME280;5307;42.548;22.968;2022-08-21T03:26:34;93289.78;;;17.75;100.00
10518;BME280;5307;42.548;22.968;2022-08-21T03:29:01;93293.03;;;17.57;100.00
10518;BME280;5307;42.548;22.968;2022-08-21T03:31:28;93301.09;;;17.55;100.00
10518;BME280;5307;42.548;22.968;2022-08-21T03:33:57;93303.84;;;17.55;100.00
10518;BME280;5307;42.548;22.968;2022-08-21T03:36:24;93296.56;;;17.52;100.00
10518;BME280;5307;42.548;22.968;2022-08-21T03:38:52;93295.31;;;17.53;100.00
10518;BME280;5307;42.548;22.968;2022-08-21T03:41:19;93291.63;;;16.89;100.00
10518;BME280;5307;42.548;22.968;2022-08-21T03:43:46;93299.91;;;17.00;100.00
10518;BME280;5307;42.548;22.968;2022-08-21T03:46:13;93304.94;;;16.96;100.00
10518;BME280;5307;42.548;22.968;2022-08-21T03:48:40;93302.44;;;17.04;100.00
10518;BME280;5307;42.548;22.968;2022-08-21T03:51:07;93311.47;;;17.04;100.00
10518;BME280;5307;42.548;22.968;2022-08-21T03:53:34;93310.19;;;17.11;100.00
10518;BME280;5307;42.548;22.968;2022-08-21T03:56:04;93312.19;;;17.16;100.00
10518;BME280;5307;42.548;22.968;2022-08-21T03:58:31;93322.22;;;17.25;100.00
10518;BME280;5307;42.548;22.968;2022-08-21T04:01:00;93318.69;;;17.30;100.00
10518;BME280;5307;42.548;22.968;2022-08-21T04:03:28;93319.94;;;17.40;100.00
10518;BME280;5307;42.548;22.968;2022-08-21T04:05:55;93313.66;;;17.39;100.00
10518;BME280;5307;42.548;22.968;2022-08-21T04:08:22;93318.69;;;17.30;100.00
10518;BME280;5307;42.548;22.968;2022-08-21T04:10:51;93305.16;;;17.32;100.00
10518;BME280;5307;42.548;22.968;2022-08-21T04:13:20;93317.22;;;17.23;100.00
10518;BME280;5307;42.548;22.968;2022-08-21T04:15:48;93309.94;;;17.14;100.00
10518;BME280;5307;42.548;22.968;2022-08-21T04:18:16;93318.22;;;17.03;100.00
10518;BME280;5307;42.548;22.968;2022-08-21T04:20:45;93327.72;;;17.30;100.00
10518;BME280;5307;42.548;22.968;2022-08-21T04:23:13;93318.44;;;17.16;100.00
10518;BME280;5307;42.548;22.968;2022-08-21T04:25:40;93334.00;;;17.36;100.00
10518;BME280;5307;42.548;22.968;2022-08-21T04:28:06;93336.75;;;17.42;100.00
10518;BME280;5307;42.548;22.968;2022-08-21T04:30:35;93339.78;;;17.38;100.00
10518;BME280;5307;42.548;22.968;2022-08-21T04:33:02;93337.75;;;17.44;100.00
10518;BME280;5307;42.548;22.968;2022-08-21T04:35:29;93334.47;;;17.57;100.00
10518;BME280;5307;42.548;22.968;2022-08-21T04:37:56;93338.00;;;17.52;100.00
10518;BME280;5307;42.548;22.968;2022-08-21T04:40:25;93344.00;;;17.56;100.00
10518;BME280;5307;42.548;22.968;2022-08-21T04:42:54;93347.53;;;17.62;100.00
10518;BME280;5307;42.548;22.968;2022-08-21T04:45:23;93343.50;;;17.74;100.00
10518;BME280;5307;42.548;22.968;2022-08-21T04:47:53;93343.75;;;17.65;100.00
10518;BME280;5307;42.548;22.968;2022-08-21T04:50:22;93326.19;;;17.57;100.00
10518;BME280;5307;42.548;22.968;2022-08-21T04:52:51;93330.44;;;17.58;100.00
10518;BME280;5307;42.548;22.968;2022-08-21T04:55:19;93342.75;;;17.57;100.00
10518;BME280;5307;42.548;22.968;2022-08-21T04:57:46;93344.28;;;17.47;100.00
10518;BME280;5307;42.548;22.968;2022-08-21T05:00:17;93348.25;;;17.57;100.00
10518;BME280;5307;42.548;22.968;2022-08-21T05:02:44;93346.25;;;17.69;100.00
10518;BME280;5307;42.548;22.968;2022-08-21T05:05:14;93346.53;;;17.60;100.00
10518;BME280;5307;42.548;22.968;2022-08-21T05:07:42;93343.00;;;17.70;100.00
10518;BME280;5307;42.548;22.968;2022-08-21T05:10:12;93340.72;;;17.80;100.00
10518;BME280;5307;42.548;22.968;2022-08-21T05:12:39;93344.66;;;18.07;100.00
10518;BME280;5307;42.548;22.968;2022-08-21T05:15:07;93346.41;;;18.10;100.00
10518;BME280;5307;42.548;22.968;2022-08-21T05:17:34;93333.88;;;17.98;100.00
10518;BME280;5307;42.548;22.968;2022-08-21T05:20:01;93339.63;;;18.05;100.00
10518;BME280;5307;42.548;22.968;2022-08-21T05:22:30;93334.34;;;18.07;100.00
10518;BME280;5307;42.548;22.968;2022-08-21T05:24:57;93341.16;;;18.01;100.00
10518;BME280;5307;42.548;22.968;2022-08-21T05:27:24;93344.41;;;18.05;100.00
10518;BME280;5307;42.548;22.968;2022-08-21T05:29:51;93336.38;;;18.01;100.00
10518;BME280;5307;42.548;22.968;2022-08-21T05:32:17;93339.34;;;18.15;100.00
10518;BME280;5307;42.548;22.968;2022-08-21T05:34:44;93328.13;;;17.85;100.00
10518;BME280;5307;42.548;22.968;2022-08-21T05:37:12;93339.94;;;17.91;100.00
10518;BME280;5307;42.548;22.968;2022-08-21T05:39:40;93340.41;;;17.95;100.00
10518;BME280;5307;42.548;22.968;2022-08-21T05:42:07;93335.94;;;17.80;100.00
10518;BME280;5307;42.548;22.968;2022-08-21T05:44:34;93337.97;;;17.74;100.00
10518;BME280;5307;42.548;22.968;2022-08-21T05:47:05;93339.88;;;18.07;100.00
10518;BME280;5307;42.548;22.968;2022-08-21T05:49:33;93333.16;;;17.92;100.00
10518;BME280;5307;42.548;22.968;2022-08-21T05:52:00;93342.72;;;17.79;100.00
10518;BME280;5307;42.548;22.968;2022-08-21T05:54:27;93336.13;;;17.99;100.00
10518;BME280;5307;42.548;22.968;2022-08-21T05:56:55;93334.75;;;18.28;100.00
10518;BME280;5307;42.548;22.968;2022-08-21T05:59:23;93336.09;;;18.10;100.00
10518;BME280;5307;42.548;22.968;2022-08-21T06:01:50;93322.75;;;18.15;100.00
10518;BME280;5307;42.548;22.968;2022-08-21T06:04:18;93324.25;;;18.16;100.00
10518;BME280;5307;42.548;22.968;2022-08-21T06:06:45;93324.31;;;17.99;100.00
10518;BME280;5307;42.548;22.968;2022-08-21T06:09:13;93329.09;;;18.04;100.00
10518;BME280;5307;42.548;22.968;2022-08-21T06:11:39;93325.91;;;17.77;100.00
10518;BME280;5307;42.548;22.968;2022-08-21T06:14:08;93329.34;;;18.06;100.00
10518;BME280;5307;42.548;22.968;2022-08-21T06:16:35;93323.81;;;18.06;100.00
10518;BME280;5307;42.548;22.968;2022-08-21T06:19:01;93322.19;;;18.27;100.00
10518;BME280;5307;42.548;22.968;2022-08-21T06:21:28;93321.25;;;18.19;100.00
10518;BME280;5307;42.548;22.968;2022-08-21T06:23:55;93319.94;;;18.31;100.00
10518;BME280;5307;42.548;22.968;2022-08-21T06:26:22;93326.63;;;18.42;100.00
10518;BME280;5307;42.548;22.968;2022-08-21T06:28:50;93325.28;;;18.65;100.00
10518;BME280;5307;42.548;22.968;2022-08-21T06:31:21;93324.78;;;18.61;100.00
10518;BME280;5307;42.548;22.968;2022-08-21T06:33:48;93322.94;;;18.33;100.00
10518;BME280;5307;42.548;22.968;2022-08-21T06:36:15;93322.03;;;18.61;100.00
10518;BME280;5307;42.548;22.968;2022-08-21T06:38:42;93324.28;;;18.62;100.00
10518;BME280;5307;42.548;22.968;2022-08-21T06:41:10;93324.28;;;18.57;100.00
10518;BME280;5307;42.548;22.968;2022-08-21T06:43:37;93327.13;;;18.46;100.00
10518;BME280;5307;42.548;22.968;2022-08-21T06:46:04;93329.34;;;18.53;100.00
10518;BME280;5307;42.548;22.968;2022-08-21T06:48:33;93330.56;;;18.63;100.00
10518;BME280;5307;42.548;22.968;2022-08-21T06:51:00;93335.09;;;19.02;100.00
10518;BME280;5307;42.548;22.968;2022-08-21T06:53:28;93346.66;;;19.06;100.00
10518;BME280;5307;42.548;22.968;2022-08-21T06:55:54;93337.03;;;19.12;100.00
10518;BME280;5307;42.548;22.968;2022-08-21T06:58:21;93340.09;;;18.67;100.00
10518;BME280;5307;42.548;22.968;2022-08-21T07:00:49;93332.41;;;18.90;100.00
10518;BME280;5307;42.548;22.968;2022-08-21T07:03:19;93324.44;;;19.11;100.00
10518;BME280;5307;42.548;22.968;2022-08-21T07:05:48;93320.22;;;19.65;100.00
10518;BME280;5307;42.548;22.968;2022-08-21T07:08:15;93330.25;;;19.68;100.00
10518;BME280;5307;42.548;22.968;2022-08-21T07:10:43;93318.53;;;19.56;97.42
10518;BME280;5307;42.548;22.968;2022-08-21T07:13:10;93324.59;;;20.03;93.08
10518;BME280;5307;42.548;22.968;2022-08-21T07:15:37;93323.41;;;20.42;93.10
10518;BME280;5307;42.548;22.968;2022-08-21T07:18:04;93323.00;;;20.51;89.04
10518;BME280;5307;42.548;22.968;2022-08-21T07:20:31;93315.69;;;21.04;90.38
10518;BME280;5307;42.548;22.968;2022-08-21T07:23:02;93296.19;;;21.23;91.35
10518;BME280;5307;42.548;22.968;2022-08-21T07:25:30;93312.59;;;22.25;88.00
10518;BME280;5307;42.548;22.968;2022-08-21T07:27:57;93311.28;;;22.00;84.63
10518;BME280;5307;42.548;22.968;2022-08-21T07:30:24;93307.53;;;22.23;85.78
10518;BME280;5307;42.548;22.968;2022-08-21T07:32:53;93300.72;;;22.11;81.38
10518;BME280;5307;42.548;22.968;2022-08-21T07:35:21;93298.16;;;22.13;81.75
10518;BME280;5307;42.548;22.968;2022-08-21T07:37:48;93313.44;;;22.20;81.69
10518;BME280;5307;42.548;22.968;2022-08-21T07:40:17;93295.63;;;22.36;85.46
10518;BME280;5307;42.548;22.968;2022-08-21T07:42:46;93298.00;;;22.32;83.66
10518;BME280;5307;42.548;22.968;2022-08-21T07:45:15;93300.16;;;21.86;84.25
10518;BME280;5307;42.548;22.968;2022-08-21T07:47:42;93298.09;;;21.47;81.53
10518;BME280;5307;42.548;22.968;2022-08-21T07:50:10;93297.91;;;21.85;83.52
10518;BME280;5307;42.548;22.968;2022-08-21T07:52:38;93305.28;;;22.22;80.88
10518;BME280;5307;42.548;22.968;2022-08-21T07:55:05;93291.81;;;21.60;80.51
10518;BME280;5307;42.548;22.968;2022-08-21T07:57:34;93297.38;;;22.26;78.73
10518;BME280;5307;42.548;22.968;2022-08-21T08:00:01;93301.44;;;22.38;79.04
10518;BME280;5307;42.548;22.968;2022-08-21T08:02:29;93293.34;;;22.14;76.94
10518;BME280;5307;42.548;22.968;2022-08-21T08:04:58;93302.47;;;23.17;74.12
10518;BME280;5307;42.548;22.968;2022-08-21T08:07:26;93300.50;;;22.83;73.39
10518;BME280;5307;42.548;22.968;2022-08-21T08:09:53;93297.00;;;23.24;74.87
10518;BME280;5307;42.548;22.968;2022-08-21T08:12:20;93292.97;;;22.78;74.58
10518;BME280;5307;42.548;22.968;2022-08-21T08:14:48;93299.56;;;22.67;73.36
10518;BME280;5307;42.548;22.968;2022-08-21T08:17:15;93299.03;;;23.24;72.47
10518;BME280;5307;42.548;22.968;2022-08-21T08:19:42;93296.31;;;23.52;73.10
10518;BME280;5307;42.548;22.968;2022-08-21T08:22:15;93298.13;;;23.08;71.88
10518;BME280;5307;42.548;22.968;2022-08-21T08:24:42;93277.41;;;23.58;71.98
10518;BME280;5307;42.548;22.968;2022-08-21T08:27:09;93262.00;;;23.16;70.03
10518;BME280;5307;42.548;22.968;2022-08-21T08:29:36;93283.81;;;23.25;71.89
10518;BME280;5307;42.548;22.968;2022-08-21T08:32:05;93279.28;;;23.63;70.62
10518;BME280;5307;42.548;22.968;2022-08-21T08:34:33;93272.69;;;23.74;71.06
10518;BME280;5307;42.548;22.968;2022-08-21T08:36:59;93282.09;;;23.63;70.64
10518;BME280;5307;42.548;22.968;2022-08-21T08:39:26;93279.22;;;23.35;70.68
10518;BME280;5307;42.548;22.968;2022-08-21T08:41:57;93278.63;;;22.87;72.08
10518;BME280;5307;42.548;22.968;2022-08-21T08:44:26;93267.91;;;23.82;69.42
10518;BME280;5307;42.548;22.968;2022-08-21T08:46:53;93273.81;;;23.29;70.14
10518;BME280;5307;42.548;22.968;2022-08-21T08:49:25;93264.84;;;23.65;68.80
10518;BME280;5307;42.548;22.968;2022-08-21T08:51:56;93267.19;;;23.61;66.39
10518;BME280;5307;42.548;22.968;2022-08-21T08:54:28;93262.44;;;24.34;67.52
10518;BME280;5307;42.548;22.968;2022-08-21T08:56:58;93259.69;;;24.49;63.43
10518;BME280;5307;42.548;22.968;2022-08-21T08:59:27;93260.75;;;24.90;65.16
10518;BME280;5307;42.548;22.968;2022-08-21T09:01:59;93260.63;;;24.08;64.54
10518;BME280;5307;42.548;22.968;2022-08-21T09:04:28;93262.25;;;24.03;66.47
10518;BME280;5307;42.548;22.968;2022-08-21T09:07:09;93265.88;;;23.13;67.80
10518;BME280;5307;42.548;22.968;2022-08-21T09:09:48;93253.72;;;23.73;68.17
10518;BME280;5307;42.548;22.968;2022-08-21T09:12:29;93255.56;;;23.70;66.75
10518;BME280;5307;42.548;22.968;2022-08-21T09:15:03;93249.34;;;23.85;65.45
10518;BME280;5307;42.548;22.968;2022-08-21T09:17:40;93248.13;;;23.73;68.32
10518;BME280;5307;42.548;22.968;2022-08-21T09:20:29;93245.84;;;23.63;68.24
10518;BME280;5307;42.548;22.968;2022-08-21T09:23:08;93238.56;;;23.89;67.76
10518;BME280;5307;42.548;22.968;2022-08-21T09:25:42;93238.91;;;24.65;67.55
10518;BME280;5307;42.548;22.968;2022-08-21T09:28:10;93234.22;;;24.16;63.98
10518;BME280;5307;42.548;22.968;2022-08-21T09:30:39;93233.06;;;25.30;65.33
10518;BME280;5307;42.548;22.968;2022-08-21T09:33:07;93234.97;;;24.09;65.24
10518;BME280;5307;42.548;22.968;2022-08-21T09:35:48;93236.88;;;23.86;66.94
10518;BME280;5307;42.548;22.968;2022-08-21T09:38:26;93227.81;;;23.93;67.34
10518;BME280;5307;42.548;22.968;2022-08-21T09:40:58;93231.97;;;24.07;66.47
10518;BME280;5307;42.548;22.968;2022-08-21T09:43:25;93234.56;;;24.49;64.29
10518;BME280;5307;42.548;22.968;2022-08-21T09:46:04;93221.91;;;24.04;65.25
10518;BME280;5307;42.548;22.968;2022-08-21T09:48:41;93222.50;;;24.10;66.87
10518;BME280;5307;42.548;22.968;2022-08-21T09:51:12;93218.91;;;24.02;67.05
10518;BME280;5307;42.548;22.968;2022-08-21T09:53:43;93208.13;;;24.06;67.40
10518;BME280;5307;42.548;22.968;2022-08-21T09:56:20;93216.50;;;24.06;68.82
10518;BME280;5307;42.548;22.968;2022-08-21T09:59:17;93220.34;;;23.88;65.36
10518;BME280;5307;42.548;22.968;2022-08-21T10:01:46;93215.41;;;23.65;65.93
10518;BME280;5307;42.548;22.968;2022-08-21T10:04:48;93215.81;;;23.77;65.09
10518;BME280;5307;42.548;22.968;2022-08-21T10:07:20;93214.13;;;24.10;64.77
10518;BME280;5307;42.548;22.968;2022-08-21T10:13:13;93200.31;;;24.41;62.04
10518;BME280;5307;42.548;22.968;2022-08-21T10:19:59;93183.66;;;25.32;62.01
10518;BME280;5307;42.548;22.968;2022-08-21T10:22:45;93184.75;;;24.83;60.73
10518;BME280;5307;42.548;22.968;2022-08-21T10:25:52;93179.59;;;25.10;59.74
10518;BME280;5307;42.548;22.968;2022-08-21T10:28:28;93175.69;;;25.21;60.06
10518;BME280;5307;42.548;22.968;2022-08-21T10:31:02;93172.63;;;25.65;59.91
10518;BME280;5307;42.548;22.968;2022-08-21T10:33:36;93173.38;;;25.58;59.18
10518;BME280;5307;42.548;22.968;2022-08-21T10:36:13;93170.06;;;24.98;60.22
10518;BME280;5307;42.548;22.968;2022-08-21T10:38:58;93169.31;;;25.05;60.88
10518;BME280;5307;42.548;22.968;2022-08-21T10:41:39;93168.41;;;25.03;61.14
10518;BME280;5307;42.548;22.968;2022-08-21T10:44:17;93166.13;;;25.70;61.32
10518;BME280;5307;42.548;22.968;2022-08-21T10:46:54;93157.75;;;25.55;58.26
10518;BME280;5307;42.548;22.968;2022-08-21T10:49:32;93159.94;;;26.27;60.25
10518;BME280;5307;42.548;22.968;2022-08-21T10:52:21;93162.59;;;26.17;59.55
10518;BME280;5307;42.548;22.968;2022-08-21T10:54:54;93157.84;;;26.35;57.75
10518;BME280;5307;42.548;22.968;2022-08-21T10:57:28;93153.94;;;25.90;57.58
10518;BME280;5307;42.548;22.968;2022-08-21T11:00:00;93156.59;;;25.73;57.31
10518;BME280;5307;42.548;22.968;2022-08-21T11:02:35;93155.06;;;25.87;56.20
10518;BME280;5307;42.548;22.968;2022-08-21T11:05:08;93139.81;;;26.21;56.04
10518;BME280;5307;42.548;22.968;2022-08-21T11:07:42;93143.13;;;26.67;56.29
10518;BME280;5307;42.548;22.968;2022-08-21T11:10:16;93134.88;;;25.96;55.55
10518;BME280;5307;42.548;22.968;2022-08-21T11:12:54;93133.41;;;25.95;55.62
10518;BME280;5307;42.548;22.968;2022-08-21T11:15:36;93124.88;;;25.78;56.96
10518;BME280;5307;42.548;22.968;2022-08-21T11:18:20;93118.97;;;25.43;58.32
10518;BME280;5307;42.548;22.968;2022-08-21T11:20:51;93115.56;;;25.75;55.87
10518;BME280;5307;42.548;22.968;2022-08-21T11:23:42;93116.53;;;25.48;56.16
10518;BME280;5307;42.548;22.968;2022-08-21T11:26:15;93114.91;;;25.29;57.04
10518;BME280;5307;42.548;22.968;2022-08-21T11:28:47;93117.06;;;25.61;60.08
10518;BME280;5307;42.548;22.968;2022-08-21T11:31:35;93114.16;;;25.36;58.46
10518;BME280;5307;42.548;22.968;2022-08-21T11:34:18;93111.41;;;25.13;60.85
10518;BME280;5307;42.548;22.968;2022-08-21T11:36:51;93117.91;;;25.16;59.04
10518;BME280;5307;42.548;22.968;2022-08-21T11:39:25;93105.00;;;25.51;60.75
10518;BME280;5307;42.548;22.968;2022-08-21T11:42:03;93106.34;;;25.27;59.61
10518;BME280;5307;42.548;22.968;2022-08-21T11:44:43;93103.78;;;25.06;59.07
10518;BME280;5307;42.548;22.968;2022-08-21T11:47:25;93108.19;;;25.40;59.91
10518;BME280;5307;42.548;22.968;2022-08-21T11:50:05;93108.28;;;25.72;61.61
10518;BME280;5307;42.548;22.968;2022-08-21T11:52:40;93107.44;;;25.39;58.25
10518;BME280;5307;42.548;22.968;2022-08-21T11:55:13;93098.50;;;25.33;58.80
10518;BME280;5307;42.548;22.968;2022-08-21T11:57:48;93101.41;;;25.66;61.35
10518;BME280;5307;42.548;22.968;2022-08-21T12:00:20;93087.44;;;25.58;59.53
10518;BME280;5307;42.548;22.968;2022-08-21T12:02:52;93082.75;;;25.76;57.28
10518;BME280;5307;42.548;22.968;2022-08-21T12:05:28;93088.28;;;25.91;58.77
10518;BME280;5307;42.548;22.968;2022-08-21T12:08:05;93085.59;;;26.09;59.57
10518;BME280;5307;42.548;22.968;2022-08-21T12:10:35;93086.06;;;26.22;56.39
10518;BME280;5307;42.548;22.968;2022-08-21T12:13:23;93076.69;;;25.95;57.74
10518;BME280;5307;42.548;22.968;2022-08-21T12:15:50;93091.69;;;25.82;57.00
10518;BME280;5307;42.548;22.968;2022-08-21T12:18:23;93096.81;;;25.38;58.20
10518;BME280;5307;42.548;22.968;2022-08-21T12:21:01;93087.56;;;25.83;58.94
10518;BME280;5307;42.548;22.968;2022-08-21T12:23:31;93095.59;;;25.79;57.31
10518;BME280;5307;42.548;22.968;2022-08-21T12:26:22;93092.84;;;25.64;59.31
10518;BME280;5307;42.548;22.968;2022-08-21T12:28:51;93098.06;;;25.60;58.30
10518;BME280;5307;42.548;22.968;2022-08-21T12:31:24;93099.41;;;25.43;59.85
10518;BME280;5307;42.548;22.968;2022-08-21T12:33:54;93087.56;;;25.83;61.37
10518;BME280;5307;42.548;22.968;2022-08-21T12:36:26;93086.50;;;26.11;60.04
10518;BME280;5307;42.548;22.968;2022-08-21T12:38:59;93075.97;;;25.87;57.99
10518;BME280;5307;42.548;22.968;2022-08-21T12:41:30;93070.28;;;25.69;57.68
10518;BME280;5307;42.548;22.968;2022-08-21T12:44:04;93062.63;;;25.70;58.88
10518;BME280;5307;42.548;22.968;2022-08-21T12:46:38;93063.69;;;25.82;57.03
10518;BME280;5307;42.548;22.968;2022-08-21T12:49:09;93072.06;;;25.34;58.09
10518;BME280;5307;42.548;22.968;2022-08-21T12:51:48;93094.19;;;25.48;58.71
10518;BME280;5307;42.548;22.968;2022-08-21T12:54:23;93092.91;;;25.33;61.30
10518;BME280;5307;42.548;22.968;2022-08-21T12:56:59;93102.28;;;25.13;62.51
10518;BME280;5307;42.548;22.968;2022-08-21T12:59:27;93087.94;;;24.94;62.33
10518;BME280;5307;42.548;22.968;2022-08-21T13:01:55;93095.19;;;24.66;64.14
10518;BME280;5307;42.548;22.968;2022-08-21T13:04:30;93104.47;;;24.38;64.20
10518;BME280;5307;42.548;22.968;2022-08-21T13:06:59;93098.53;;;24.42;64.12
10518;BME280;5307;42.548;22.968;2022-08-21T13:09:28;93102.25;;;24.37;64.78
10518;BME280;5307;42.548;22.968;2022-08-21T13:11:57;93089.91;;;24.24;63.53
10518;BME280;5307;42.548;22.968;2022-08-21T13:14:29;93079.75;;;24.50;64.51
10518;BME280;5307;42.548;22.968;2022-08-21T13:16:58;93077.78;;;24.14;62.50
10518;BME280;5307;42.548;22.968;2022-08-21T13:19:26;93081.41;;;24.38;62.12